Time;durP1;ratioP1;P1;durP2;ratioP2;P2;SDS_P1;SDS_P2;PMS_P1;PMS_P2;Temp;Humidity;BMP_temperature;BMP_pressure;BME280_temperature;BME280_humidity;BME280_pressure;Samples;Min_cycle;Max_cycle;Signal;HPM_P1;HPM_P2
2022/07/15 00:00:47;;;;;;;3.83;2.92;;;;;;;;;;4994818;28;20050;-81
2022/07/15 00:03:14;;;;;;;3.25;2.58;;;;;;;;;;4993895;28;20045;-81
2022/07/15 00:05:40;;;;;;;4.10;2.92;;;;;;;;;;4994567;28;20147;-81
2022/07/15 00:08:06;;;;;;;7.78;2.53;;;;;;;;;;4993929;28;20500;-80
2022/07/15 00:10:32;;;;;;;2.85;2.40;;;;;;;;;;4994210;28;20180;-81
2022/07/15 00:12:59;;;;;;;2.80;2.60;;;;;;;;;;4995317;28;20494;-81
2022/07/15 00:15:27;;;;;;;3.08;2.50;;;;;;;;;;4977128;28;20509;-81
2022/07/15 00:17:53;;;;;;;4.97;2.80;;;;;;;;;;4975368;28;20568;-81
2022/07/15 00:20:20;;;;;;;3.03;2.70;;;;;;;;;;4975204;28;20069;-80
2022/07/15 00:22:47;;;;;;;3.33;2.55;;;;;;;;;;4992726;28;20042;-81
2022/07/15 00:25:13;;;;;;;4.45;2.60;;;;;;;;;;4992463;28;20038;-80
2022/07/15 00:27:52;;;;;;;2.67;2.35;;;;;;;;;;4992700;28;20047;-81
2022/07/15 00:30:18;;;;;;;5.18;3.00;;;;;;;;;;4993934;28;20073;-80
2022/07/15 00:32:44;;;;;;;2.85;2.53;;;;;;;;;;4997522;28;20109;-80
2022/07/15 00:35:10;;;;;;;2.60;2.40;;;;;;;;;;4998525;28;20088;-81
2022/07/15 00:37:36;;;;;;;5.15;3.05;;;;;;;;;;4998642;28;20133;-81
2022/07/15 00:40:03;;;;;;;4.80;2.65;;;;;;;;;;4998375;28;20497;-81
2022/07/15 00:42:44;;;;;;;6.28;3.00;;;;;;;;;;4997975;28;20116;-81
2022/07/15 00:45:17;;;;;;;3.20;2.90;;;;;;;;;;4997804;28;20062;-81
2022/07/15 00:47:45;;;;;;;3.10;2.80;;;;;;;;;;4980214;28;20049;-81
2022/07/15 00:50:12;;;;;;;3.13;2.83;;;;;;;;;;4998123;28;20133;-80
2022/07/15 00:52:49;;;;;;;2.83;2.63;;;;;;;;;;4980582;28;20054;-81
2022/07/15 00:55:15;;;;;;;2.70;2.50;;;;;;;;;;4998037;28;20541;-81
2022/07/15 00:57:43;;;;;;;2.92;2.53;;;;;;;;;;4997687;28;20121;-81
2022/07/15 01:00:13;;;;;;;3.00;2.80;;;;;;;;;;4997420;28;20050;-80
2022/07/15 01:02:40;;;;;;;3.17;2.88;;;;;;;;;;4997939;28;20034;-80
2022/07/15 01:05:10;;;;;;;3.72;2.72;;;;;;;;;;4997761;28;20051;-80
2022/07/15 01:07:36;;;;;;;4.03;2.90;;;;;;;;;;4998358;28;20145;-80
2022/07/15 01:10:03;;;;;;;4.68;2.80;;;;;;;;;;4997606;28;20133;-81
2022/07/15 01:12:29;;;;;;;3.22;2.75;;;;;;;;;;4997705;28;20132;-80
2022/07/15 01:14:55;;;;;;;4.65;2.40;;;;;;;;;;4997502;28;20555;-81
2022/07/15 01:17:21;;;;;;;2.92;2.72;;;;;;;;;;4997791;28;20042;-80
2022/07/15 01:19:48;;;;;;;2.92;2.60;;;;;;;;;;4997869;28;20039;-81
2022/07/15 01:22:14;;;;;;;4.22;3.00;;;;;;;;;;4980300;28;20041;-81
2022/07/15 01:24:40;;;;;;;3.55;2.65;;;;;;;;;;4998070;28;20042;-80
2022/07/15 01:27:07;;;;;;;4.40;2.83;;;;;;;;;;4997449;28;20076;-81
2022/07/15 01:29:33;;;;;;;5.00;2.85;;;;;;;;;;4997520;28;20125;-81
2022/07/15 01:31:59;;;;;;;3.72;2.88;;;;;;;;;;4997372;28;20134;-81
2022/07/15 01:34:25;;;;;;;3.05;2.85;;;;;;;;;;4997945;28;20038;-81
2022/07/15 01:36:51;;;;;;;3.53;2.50;;;;;;;;;;4997557;28;20038;-81
2022/07/15 01:39:17;;;;;;;3.45;2.38;;;;;;;;;;4997653;28;20512;-80
2022/07/15 01:41:44;;;;;;;3.05;2.70;;;;;;;;;;4996835;28;20042;-80
2022/07/15 01:44:12;;;;;;;4.65;2.80;;;;;;;;;;4997371;28;20524;-80
2022/07/15 01:46:38;;;;;;;4.80;2.28;;;;;;;;;;4997087;28;20046;-80
2022/07/15 01:49:22;;;;;;;2.65;2.45;;;;;;;;;;4980089;28;20042;-80
2022/07/15 01:51:50;;;;;;;4.00;2.70;;;;;;;;;;4997843;28;20121;-80
2022/07/15 01:54:16;;;;;;;5.60;2.22;;;;;;;;;;4979287;28;20089;-80
2022/07/15 01:56:42;;;;;;;4.20;2.60;;;;;;;;;;4997206;28;20049;-80
2022/07/15 01:59:08;;;;;;;2.70;2.47;;;;;;;;;;4997063;28;20125;-81
2022/07/15 02:01:35;;;;;;;2.63;2.40;;;;;;;;;;4979643;28;20042;-80
2022/07/15 02:04:01;;;;;;;2.97;2.17;;;;;;;;;;4997509;28;20046;-81
2022/07/15 02:06:28;;;;;;;2.50;2.17;;;;;;;;;;4997045;28;20034;-81
2022/07/15 02:08:55;;;;;;;2.85;2.40;;;;;;;;;;4996714;28;20125;-80
2022/07/15 02:11:22;;;;;;;6.90;2.67;;;;;;;;;;4996878;28;20042;-80
2022/07/15 02:13:48;;;;;;;4.05;2.60;;;;;;;;;;4996570;28;20046;-80
2022/07/15 02:16:14;;;;;;;3.45;2.60;;;;;;;;;;4997049;28;20120;-80
2022/07/15 02:18:40;;;;;;;2.60;2.20;;;;;;;;;;4996490;28;20038;-81
2022/07/15 02:21:06;;;;;;;3.03;2.70;;;;;;;;;;4996400;28;20042;-81
2022/07/15 02:23:32;;;;;;;2.97;2.72;;;;;;;;;;4996844;28;20136;-80
2022/07/15 02:25:58;;;;;;;2.58;2.35;;;;;;;;;;4996641;28;20046;-81
2022/07/15 02:28:25;;;;;;;3.00;2.70;;;;;;;;;;4996136;28;20113;-80
2022/07/15 02:30:51;;;;;;;2.80;2.60;;;;;;;;;;4996488;28;20042;-80
2022/07/15 02:33:17;;;;;;;3.33;2.38;;;;;;;;;;4978748;28;20077;-80
2022/07/15 02:35:43;;;;;;;5.07;2.70;;;;;;;;;;4996360;28;20042;-80
2022/07/15 02:38:09;;;;;;;3.00;2.80;;;;;;;;;;4995945;28;20132;-80
2022/07/15 02:40:36;;;;;;;4.25;2.58;;;;;;;;;;4996010;28;20524;-80
2022/07/15 02:43:03;;;;;;;3.05;2.75;;;;;;;;;;4996333;28;20065;-80
2022/07/15 02:45:30;;;;;;;2.60;2.40;;;;;;;;;;4995846;28;20042;-81
2022/07/15 02:47:57;;;;;;;3.85;2.65;;;;;;;;;;4995928;28;20034;-81
2022/07/15 02:50:23;;;;;;;5.00;2.72;;;;;;;;;;4995743;28;20489;-81
2022/07/15 02:52:49;;;;;;;3.38;2.40;;;;;;;;;;4995313;28;20556;-81
2022/07/15 02:55:16;;;;;;;3.38;3.08;;;;;;;;;;4978197;28;20070;-81
2022/07/15 02:57:42;;;;;;;5.63;2.70;;;;;;;;;;4996044;28;20042;-81
2022/07/15 03:00:11;;;;;;;4.35;2.58;;;;;;;;;;4995555;28;20046;-81
2022/07/15 03:02:38;;;;;;;3.97;2.80;;;;;;;;;;4996036;28;20038;-81
2022/07/15 03:10:16;;;;;;;2.92;2.63;;;;;;;;;;5422387;22;20054;-79
2022/07/15 03:12:43;;;;;;;4.47;2.40;;;;;;;;;;5034929;28;20495;-79
2022/07/15 03:15:11;;;;;;;4.55;2.65;;;;;;;;;;5613879;22;20045;-79
2022/07/15 03:20:08;;;;;;;3.25;2.67;;;;;;;;;;4973746;28;20437;-78
2022/07/15 03:22:34;;;;;;;3.33;3.05;;;;;;;;;;4975783;28;20043;-79
2022/07/15 03:25:00;;;;;;;2.88;2.67;;;;;;;;;;4976064;28;20046;-79
2022/07/15 03:27:26;;;;;;;4.78;2.65;;;;;;;;;;4976528;28;20043;-79
2022/07/15 03:29:52;;;;;;;3.60;3.30;;;;;;;;;;4975889;28;20055;-79
2022/07/15 03:32:20;;;;;;;5.68;2.67;;;;;;;;;;4975708;28;20034;-79
2022/07/15 03:34:46;;;;;;;3.70;3.13;;;;;;;;;;4975663;28;20047;-79
2022/07/15 03:37:12;;;;;;;5.40;2.92;;;;;;;;;;4976151;28;20085;-79
2022/07/15 03:39:38;;;;;;;5.75;2.97;;;;;;;;;;4975945;28;20517;-79
2022/07/15 03:42:05;;;;;;;5.18;2.90;;;;;;;;;;4975828;28;20035;-79
2022/07/15 03:44:31;;;;;;;3.25;2.70;;;;;;;;;;4974680;28;20069;-79
2022/07/15 03:46:57;;;;;;;3.35;3.00;;;;;;;;;;4975474;28;20035;-79
2022/07/15 03:49:23;;;;;;;4.32;2.88;;;;;;;;;;4975681;28;20054;-79
2022/07/15 03:51:49;;;;;;;5.05;3.03;;;;;;;;;;4975636;28;20047;-81
2022/07/15 03:54:16;;;;;;;3.35;2.88;;;;;;;;;;4975318;28;20102;-81
2022/07/15 03:56:42;;;;;;;3.10;2.80;;;;;;;;;;4975356;28;20049;-80
2022/07/15 03:59:08;;;;;;;3.20;2.90;;;;;;;;;;4975310;28;20066;-81
2022/07/15 04:01:34;;;;;;;4.70;2.60;;;;;;;;;;4975578;28;20122;-81
2022/07/15 04:04:01;;;;;;;4.00;3.00;;;;;;;;;;4975153;28;20249;-81
2022/07/15 04:06:27;;;;;;;5.47;2.97;;;;;;;;;;4979076;28;20043;-81
2022/07/15 04:08:53;;;;;;;3.58;2.95;;;;;;;;;;4979170;28;20564;-81
2022/07/15 04:11:19;;;;;;;3.70;2.70;;;;;;;;;;4979383;28;20046;-81
2022/07/15 04:13:46;;;;;;;7.85;3.30;;;;;;;;;;4978778;28;20528;-81
2022/07/15 04:16:13;;;;;;;3.88;3.20;;;;;;;;;;4978991;28;20077;-81
2022/07/15 04:18:39;;;;;;;6.93;2.63;;;;;;;;;;4977732;28;20098;-81
2022/07/15 04:21:05;;;;;;;3.60;2.80;;;;;;;;;;4978301;28;20038;-81
2022/07/15 04:23:31;;;;;;;3.22;2.92;;;;;;;;;;4979655;28;20042;-80
2022/07/15 04:25:57;;;;;;;5.30;2.90;;;;;;;;;;4979206;28;20485;-81
2022/07/15 04:28:24;;;;;;;3.25;3.03;;;;;;;;;;4979825;28;20070;-81
2022/07/15 04:30:54;;;;;;;3.47;2.83;;;;;;;;;;4979334;28;20058;-81
2022/07/15 04:33:20;;;;;;;5.03;2.95;;;;;;;;;;4979557;28;20113;-81
2022/07/15 04:35:46;;;;;;;7.28;3.03;;;;;;;;;;4979024;28;20042;-81
2022/07/15 04:38:14;;;;;;;6.47;3.03;;;;;;;;;;4978967;28;20038;-81
2022/07/15 04:40:40;;;;;;;5.55;2.90;;;;;;;;;;4979200;28;20035;-80
2022/07/15 04:43:06;;;;;;;5.85;3.17;;;;;;;;;;4978858;28;20392;-81
2022/07/15 04:45:33;;;;;;;3.72;3.15;;;;;;;;;;4978829;28;20117;-81
2022/07/15 04:47:59;;;;;;;4.88;2.90;;;;;;;;;;4979177;28;20489;-81
2022/07/15 04:53:10;;;;;;;6.50;2.88;;;;;;;;;;4978923;28;20054;-81
2022/07/15 04:55:36;;;;;;;5.05;3.00;;;;;;;;;;4977657;28;20389;-81
2022/07/15 04:58:02;;;;;;;5.32;3.00;;;;;;;;;;4979229;28;20057;-81
2022/07/15 05:00:29;;;;;;;3.05;2.85;;;;;;;;;;4978834;28;20070;-81
2022/07/15 05:02:55;;;;;;;3.00;2.72;;;;;;;;;;4978785;28;20054;-81
2022/07/15 05:05:21;;;;;;;4.90;2.95;;;;;;;;;;4978044;28;20042;-81
2022/07/15 05:07:47;;;;;;;3.53;2.90;;;;;;;;;;4978595;28;20046;-81
2022/07/15 05:10:13;;;;;;;5.90;3.13;;;;;;;;;;4978912;28;20042;-81
2022/07/15 05:12:40;;;;;;;4.75;3.00;;;;;;;;;;4977289;28;20421;-81
2022/07/15 05:15:07;;;;;;;3.67;2.70;;;;;;;;;;4978638;28;20065;-81
2022/07/15 05:17:34;;;;;;;4.10;2.95;;;;;;;;;;4977372;28;20122;-81
2022/07/15 05:20:00;;;;;;;3.45;2.80;;;;;;;;;;4978586;28;20173;-81
2022/07/15 05:22:26;;;;;;;6.32;2.80;;;;;;;;;;4978497;28;20039;-80
2022/07/15 05:24:52;;;;;;;3.08;2.88;;;;;;;;;;4978176;28;20121;-81
2022/07/15 05:27:18;;;;;;;4.40;3.13;;;;;;;;;;4977341;28;20037;-81
2022/07/15 05:29:44;;;;;;;7.85;2.53;;;;;;;;;;4978011;28;20464;-81
2022/07/15 05:32:11;;;;;;;3.58;3.10;;;;;;;;;;4975378;28;20133;-80
2022/07/15 05:34:37;;;;;;;3.35;2.85;;;;;;;;;;4963639;28;20571;-81
2022/07/15 05:37:03;;;;;;;5.50;2.88;;;;;;;;;;4962953;28;20086;-81
2022/07/15 05:39:29;;;;;;;4.65;2.80;;;;;;;;;;4958975;28;20517;-80
2022/07/15 05:41:55;;;;;;;4.70;2.88;;;;;;;;;;4958809;28;20102;-81
2022/07/15 05:44:21;;;;;;;5.82;2.47;;;;;;;;;;4969502;28;20043;-80
2022/07/15 05:46:48;;;;;;;5.40;2.65;;;;;;;;;;4976757;28;20513;-80
2022/07/15 05:49:14;;;;;;;3.97;2.65;;;;;;;;;;4962201;28;20051;-81
2022/07/15 05:51:40;;;;;;;2.92;2.53;;;;;;;;;;4973913;28;20057;-80
2022/07/15 05:54:06;;;;;;;2.83;2.55;;;;;;;;;;4977150;28;20038;-79
2022/07/15 05:56:33;;;;;;;3.03;2.38;;;;;;;;;;4977560;28;20161;-79
2022/07/15 05:59:00;;;;;;;4.78;2.53;;;;;;;;;;4976733;28;20045;-80
2022/07/15 06:01:27;;;;;;;6.07;2.70;;;;;;;;;;4970423;28;20234;-79
2022/07/15 06:03:53;;;;;;;4.60;2.75;;;;;;;;;;4970560;28;20047;-79
2022/07/15 06:06:19;;;;;;;4.63;2.40;;;;;;;;;;4973783;28;20045;-78
2022/07/15 06:08:46;;;;;;;5.25;2.60;;;;;;;;;;4972473;28;20043;-80
2022/07/15 06:11:15;;;;;;;4.82;2.63;;;;;;;;;;4965592;28;20540;-77
2022/07/15 06:13:41;;;;;;;4.05;2.67;;;;;;;;;;4971384;28;20039;-79
2022/07/15 06:16:08;;;;;;;3.38;2.40;;;;;;;;;;4986332;28;20054;-77
2022/07/15 06:18:34;;;;;;;2.67;2.40;;;;;;;;;;4977518;28;20051;-76
2022/07/15 06:21:01;;;;;;;3.20;2.15;;;;;;;;;;4966716;28;20074;-76
2022/07/15 06:23:27;;;;;;;2.38;2.22;;;;;;;;;;4958659;28;20043;-75
2022/07/15 06:25:55;;;;;;;2.30;2.10;;;;;;;;;;4972069;28;20042;-76
2022/07/15 06:28:22;;;;;;;2.70;2.50;;;;;;;;;;4976421;28;20038;-73
2022/07/15 06:30:48;;;;;;;3.75;2.50;;;;;;;;;;4970697;28;20498;-73
2022/07/15 06:33:14;;;;;;;5.65;2.50;;;;;;;;;;4963843;28;20125;-77
2022/07/15 06:35:41;;;;;;;4.30;2.35;;;;;;;;;;4973289;28;20058;-76
2022/07/15 06:38:08;;;;;;;2.70;2.30;;;;;;;;;;4975348;28;20127;-74
2022/07/15 06:40:35;;;;;;;3.05;2.28;;;;;;;;;;4970043;28;20089;-80
2022/07/15 06:43:01;;;;;;;4.20;2.42;;;;;;;;;;4974819;28;20133;-80
2022/07/15 06:45:27;;;;;;;2.40;2.20;;;;;;;;;;4976113;28;20043;-83
2022/07/15 06:47:53;;;;;;;5.65;2.33;;;;;;;;;;4975993;28;20047;-83
2022/07/15 06:50:22;;;;;;;4.32;2.20;;;;;;;;;;4975075;28;20045;-83
2022/07/15 06:52:48;;;;;;;2.50;2.08;;;;;;;;;;4976535;28;20088;-83
2022/07/15 06:55:14;;;;;;;4.72;2.53;;;;;;;;;;4976261;28;20096;-83
2022/07/15 06:57:41;;;;;;;2.70;2.03;;;;;;;;;;4976989;28;20058;-83
2022/07/15 07:00:09;;;;;;;2.50;2.10;;;;;;;;;;4976370;28;20461;-83
2022/07/15 07:02:35;;;;;;;2.50;2.30;;;;;;;;;;4976502;28;20156;-83
2022/07/15 07:05:01;;;;;;;4.53;2.47;;;;;;;;;;4976823;28;20121;-83
2022/07/15 07:07:27;;;;;;;2.97;2.30;;;;;;;;;;4976613;28;20126;-83
2022/07/15 07:09:53;;;;;;;5.60;2.30;;;;;;;;;;4976164;28;20481;-83
2022/07/15 07:12:19;;;;;;;5.13;2.67;;;;;;;;;;4976043;28;20042;-83
2022/07/15 07:14:45;;;;;;;3.58;2.20;;;;;;;;;;4975703;28;20069;-83
2022/07/15 07:17:12;;;;;;;4.72;2.42;;;;;;;;;;4976106;28;20090;-83
2022/07/15 07:19:38;;;;;;;2.80;2.60;;;;;;;;;;4975547;28;20061;-83
2022/07/15 07:22:04;;;;;;;2.72;2.40;;;;;;;;;;4975797;28;20039;-83
2022/07/15 07:24:31;;;;;;;4.03;2.25;;;;;;;;;;4974761;28;20069;-84
2022/07/15 07:26:57;;;;;;;2.45;2.25;;;;;;;;;;4976531;28;20043;-83
2022/07/15 07:29:23;;;;;;;2.22;2.05;;;;;;;;;;4976122;28;20504;-83
2022/07/15 07:31:50;;;;;;;8.32;2.67;;;;;;;;;;4975850;28;20152;-83
2022/07/15 07:34:17;;;;;;;3.65;2.58;;;;;;;;;;4975807;28;20051;-82
2022/07/15 07:36:43;;;;;;;5.00;2.15;;;;;;;;;;4975877;28;20098;-83
2022/07/15 07:39:10;;;;;;;5.30;2.53;;;;;;;;;;4975415;28;20050;-82
2022/07/15 07:41:36;;;;;;;3.78;2.60;;;;;;;;;;4975727;28;20046;-82
2022/07/15 07:44:02;;;;;;;7.43;2.83;;;;;;;;;;4975501;28;20529;-82
2022/07/15 07:46:29;;;;;;;2.53;2.30;;;;;;;;;;4975766;28;20130;-82
2022/07/15 07:48:55;;;;;;;5.60;2.70;;;;;;;;;;4975755;28;20050;-82
2022/07/15 07:51:22;;;;;;;2.78;2.50;;;;;;;;;;4974855;28;20090;-82
2022/07/15 07:53:48;;;;;;;3.08;2.65;;;;;;;;;;4975719;28;20065;-82
2022/07/15 07:56:14;;;;;;;3.72;2.78;;;;;;;;;;4975666;28;20070;-82
2022/07/15 07:58:40;;;;;;;4.60;3.03;;;;;;;;;;4975997;28;20129;-82
2022/07/15 08:01:06;;;;;;;3.17;2.90;;;;;;;;;;4975585;28;20042;-82
2022/07/15 08:03:32;;;;;;;6.43;2.97;;;;;;;;;;4975198;28;20069;-82
2022/07/15 08:05:59;;;;;;;3.17;2.83;;;;;;;;;;4975305;28;20073;-82
2022/07/15 08:08:25;;;;;;;5.82;3.33;;;;;;;;;;4975741;28;20118;-82
2022/07/15 08:10:52;;;;;;;3.13;2.83;;;;;;;;;;4975493;28;20038;-82
2022/07/15 08:13:20;;;;;;;7.35;3.60;;;;;;;;;;4975360;28;20086;-82
2022/07/15 08:15:46;;;;;;;6.00;3.15;;;;;;;;;;4975241;28;20030;-82
2022/07/15 08:18:12;;;;;;;5.72;3.58;;;;;;;;;;4974917;28;20061;-82
2022/07/15 08:20:39;;;;;;;8.52;3.65;;;;;;;;;;4976286;28;20051;-82
2022/07/15 08:23:05;;;;;;;7.05;3.70;;;;;;;;;;4974481;28;20038;-82
2022/07/15 08:25:33;;;;;;;4.00;3.60;;;;;;;;;;4975680;28;20070;-82
2022/07/15 08:27:59;;;;;;;6.60;3.88;;;;;;;;;;4974429;28;20041;-82
2022/07/15 08:30:29;;;;;;;7.90;3.70;;;;;;;;;;4975615;28;20493;-82
2022/07/15 08:32:56;;;;;;;3.95;3.60;;;;;;;;;;4975323;28;20035;-82
2022/07/15 08:35:22;;;;;;;10.70;4.40;;;;;;;;;;4975349;28;20371;-82
2022/07/15 08:37:49;;;;;;;9.25;3.67;;;;;;;;;;4975310;28;20038;-82
2022/07/15 08:40:15;;;;;;;5.25;3.45;;;;;;;;;;4975144;28;20051;-82
2022/07/15 08:42:43;;;;;;;5.03;4.07;;;;;;;;;;4974589;28;20039;-82
2022/07/15 08:45:13;;;;;;;5.68;3.90;;;;;;;;;;4975526;28;20035;-82
2022/07/15 08:47:41;;;;;;;9.00;3.97;;;;;;;;;;4974951;28;20039;-83
2022/07/15 08:50:11;;;;;;;7.68;4.13;;;;;;;;;;4975352;28;20046;-82
2022/07/15 08:52:37;;;;;;;7.97;4.00;;;;;;;;;;4978833;28;20097;-82
2022/07/15 08:55:04;;;;;;;9.25;4.15;;;;;;;;;;4979302;28;20067;-82
2022/07/15 08:57:30;;;;;;;5.38;3.50;;;;;;;;;;4977639;28;20046;-82
2022/07/15 08:59:56;;;;;;;5.40;3.85;;;;;;;;;;4978939;28;20117;-82
2022/07/15 09:02:22;;;;;;;5.38;3.55;;;;;;;;;;4977465;28;20090;-83
2022/07/15 09:05:07;;;;;;;5.45;4.05;;;;;;;;;;4978499;28;20042;-79
2022/07/15 09:07:51;;;;;;;7.45;3.55;;;;;;;;;;4978790;28;20051;-80
2022/07/15 09:10:17;;;;;;;6.30;3.42;;;;;;;;;;4978969;28;20508;-79
2022/07/15 09:12:43;;;;;;;9.18;3.95;;;;;;;;;;4978563;28;20050;-80
2022/07/15 09:15:28;;;;;;;4.50;3.10;;;;;;;;;;4978603;28;20569;-81
2022/07/15 09:18:06;;;;;;;5.20;3.53;;;;;;;;;;4978358;28;20082;-81
2022/07/15 09:20:33;;;;;;;7.28;3.30;;;;;;;;;;4979378;28;20073;-81
2022/07/15 09:22:59;;;;;;;4.93;2.95;;;;;;;;;;4978500;28;20043;-83
2022/07/15 09:25:27;;;;;;;5.38;2.90;;;;;;;;;;4976854;28;20121;-82
2022/07/15 09:27:54;;;;;;;4.03;3.10;;;;;;;;;;4978663;28;20054;-82
2022/07/15 09:33:36;;;;;;;5.53;3.20;;;;;;;;;;4977537;28;20053;-82
2022/07/15 09:36:20;;;;;;;6.10;3.10;;;;;;;;;;4978264;28;20046;-80
2022/07/15 09:38:54;;;;;;;4.97;3.10;;;;;;;;;;4978354;28;20039;-80
2022/07/15 09:41:21;;;;;;;4.40;2.80;;;;;;;;;;4976445;28;20537;-80
2022/07/15 09:44:11;;;;;;;4.63;3.00;;;;;;;;;;4977782;28;20043;-80
2022/07/15 09:46:43;;;;;;;4.55;2.40;;;;;;;;;;4965042;28;20438;-81
2022/07/15 09:49:10;;;;;;;5.63;2.67;;;;;;;;;;4958760;29;20578;-82
2022/07/15 09:51:47;;;;;;;8.88;2.60;;;;;;;;;;4958598;28;20083;-82
2022/07/15 09:54:13;;;;;;;12.23;2.90;;;;;;;;;;4958471;28;20051;-81
2022/07/15 09:56:40;;;;;;;4.03;1.90;;;;;;;;;;4958826;28;20035;-81
2022/07/15 09:59:06;;;;;;;7.80;2.05;;;;;;;;;;4958796;28;20149;-81
2022/07/15 10:01:33;;;;;;;8.20;1.83;;;;;;;;;;4957844;29;20497;-81
2022/07/15 10:04:00;;;;;;;3.72;1.52;;;;;;;;;;4957306;28;20053;-81
2022/07/15 10:06:27;;;;;;;4.60;1.88;;;;;;;;;;4957109;29;20066;-81
2022/07/15 10:08:53;;;;;;;2.05;1.70;;;;;;;;;;4958230;28;20047;-81
2022/07/15 10:11:19;;;;;;;3.85;1.52;;;;;;;;;;4958212;29;20046;-82
2022/07/15 10:13:54;;;;;;;3.42;1.63;;;;;;;;;;4958242;28;20486;-81
2022/07/15 10:16:29;;;;;;;4.45;1.35;;;;;;;;;;4958245;28;20051;-82
2022/07/15 10:19:06;;;;;;;3.05;1.90;;;;;;;;;;4957436;29;20063;-81
2022/07/15 10:21:39;;;;;;;1.40;1.30;;;;;;;;;;4957586;28;20043;-81
2022/07/15 10:24:23;;;;;;;1.92;1.42;;;;;;;;;;4958330;28;20047;-81
2022/07/15 10:26:58;;;;;;;8.82;1.52;;;;;;;;;;4957601;29;20474;-81
2022/07/15 10:29:24;;;;;;;2.05;1.60;;;;;;;;;;4957658;29;20047;-81
2022/07/15 10:31:58;;;;;;;3.03;2.17;;;;;;;;;;4957538;28;20577;-82
2022/07/15 10:34:28;;;;;;;3.22;1.67;;;;;;;;;;4957134;28;20474;-82
2022/07/15 10:36:56;;;;;;;;;;;;;;;;;;4956451;29;20049;-81
2022/07/15 10:39:24;;;;;;;3.97;2.40;;;;;;;;;;4954728;28;19914;-79
2022/07/15 10:42:02;;;;;;;4.72;2.00;;;;;;;;;;4969251;28;20073;-78
2022/07/15 10:44:29;;;;;;;3.53;1.70;;;;;;;;;;4975154;28;20034;-80
2022/07/15 10:47:30;;;;;;;2.35;1.73;;;;;;;;;;4976130;28;20038;-80
2022/07/15 10:49:56;;;;;;;3.83;1.70;;;;;;;;;;4969121;28;20043;-79
2022/07/15 10:52:30;;;;;;;4.85;1.70;;;;;;;;;;4964955;28;20043;-80
2022/07/15 10:55:00;;;;;;;3.80;2.05;;;;;;;;;;4966120;28;20042;-79
2022/07/15 10:57:41;;;;;;;2.13;1.92;;;;;;;;;;4966228;28;20050;-80
2022/07/15 11:00:16;;;;;;;2.97;2.10;;;;;;;;;;4967889;28;20043;-79
2022/07/15 11:03:01;;;;;;;2.67;2.20;;;;;;;;;;4966063;28;20034;-79
2022/07/15 11:05:27;;;;;;;4.35;1.95;;;;;;;;;;4967746;28;20112;-79
2022/07/15 11:07:53;;;;;;;5.97;2.25;;;;;;;;;;4964680;28;20046;-79
2022/07/15 11:10:21;;;;;;;6.65;2.33;;;;;;;;;;4963675;28;20074;-80
2022/07/15 11:12:50;;;;;;;3.63;2.05;;;;;;;;;;4956534;28;20094;-80
2022/07/15 11:15:17;;;;;;;4.22;2.40;;;;;;;;;;4955984;28;20098;-80
2022/07/15 11:17:46;;;;;;;6.65;2.40;;;;;;;;;;4965559;28;20035;-81
2022/07/15 11:20:13;;;;;;;2.30;2.10;;;;;;;;;;4965050;28;20122;-82
2022/07/15 11:22:41;;;;;;;2.50;2.30;;;;;;;;;;4966210;28;20130;-80
2022/07/15 11:25:16;;;;;;;5.97;2.70;;;;;;;;;;4966535;28;20430;-80
2022/07/15 11:27:54;;;;;;;2.70;2.40;;;;;;;;;;4966239;28;20086;-80
2022/07/15 11:30:20;;;;;;;2.13;2.03;;;;;;;;;;4961718;28;20055;-80
2022/07/15 11:32:54;;;;;;;4.00;2.60;;;;;;;;;;4956020;29;20517;-80
2022/07/15 11:35:21;;;;;;;3.25;2.30;;;;;;;;;;4954662;28;20043;-80
2022/07/15 11:37:47;;;;;;;2.75;2.25;;;;;;;;;;4956155;29;20050;-79
2022/07/15 11:45:52;;;;;;;3.22;2.67;;;;;;;;;;4956078;29;20042;-78
2022/07/15 11:48:18;;;;;;;4.85;2.13;;;;;;;;;;4956495;29;20047;-78
2022/07/15 11:50:51;;;;;;;3.60;2.10;;;;;;;;;;4959051;28;20054;-78
2022/07/15 11:53:18;;;;;;;3.65;2.45;;;;;;;;;;4967703;28;20045;-79
2022/07/15 11:55:48;;;;;;;2.60;2.33;;;;;;;;;;4976253;28;20057;-78
2022/07/15 11:58:14;;;;;;;3.60;2.40;;;;;;;;;;4976254;28;20052;-78
2022/07/15 12:00:40;;;;;;;2.70;2.25;;;;;;;;;;4975658;28;20046;-79
2022/07/15 12:03:09;;;;;;;4.60;2.35;;;;;;;;;;4975732;28;20478;-78
2022/07/15 12:05:36;;;;;;;2.40;2.10;;;;;;;;;;4976113;28;20038;-78
2022/07/15 12:08:03;;;;;;;3.53;2.13;;;;;;;;;;4976066;28;20141;-78
2022/07/15 12:10:38;;;;;;;4.03;2.50;;;;;;;;;;4975406;28;20367;-79
2022/07/15 12:13:05;;;;;;;7.13;2.40;;;;;;;;;;4975873;28;20051;-79
2022/07/15 12:15:33;;;;;;;6.05;2.25;;;;;;;;;;4975811;28;20038;-79
2022/07/15 12:17:59;;;;;;;6.72;2.60;;;;;;;;;;4976133;28;20370;-78
2022/07/15 12:20:26;;;;;;;3.53;2.22;;;;;;;;;;4975535;28;20486;-79
2022/07/15 12:23:02;;;;;;;3.35;2.50;;;;;;;;;;4975425;28;20042;-79
2022/07/15 12:25:28;;;;;;;3.08;2.17;;;;;;;;;;4976005;28;20057;-80
2022/07/15 12:27:54;;;;;;;3.33;2.50;;;;;;;;;;4978939;28;20093;-80
2022/07/15 12:30:30;;;;;;;3.10;2.50;;;;;;;;;;4978223;28;20050;-79
2022/07/15 12:33:12;;;;;;;2.80;2.60;;;;;;;;;;4978883;28;20047;-79
2022/07/15 12:35:39;;;;;;;2.75;2.40;;;;;;;;;;4979682;28;20055;-80
2022/07/15 12:38:05;;;;;;;6.57;2.30;;;;;;;;;;4979494;28;20118;-79
2022/07/15 12:40:31;;;;;;;1.98;1.85;;;;;;;;;;4979489;28;20050;-79
2022/07/15 12:42:57;;;;;;;12.05;3.28;;;;;;;;;;4978938;28;20105;-79
2022/07/15 12:45:29;;;;;;;2.55;2.33;;;;;;;;;;4978543;28;20038;-79
2022/07/15 12:48:02;;;;;;;3.97;2.20;;;;;;;;;;4978480;28;20460;-80
2022/07/15 12:50:29;;;;;;;3.00;2.42;;;;;;;;;;4978752;28;20042;-79
2022/07/15 12:52:56;;;;;;;7.68;2.35;;;;;;;;;;4978478;28;20117;-80
2022/07/15 12:55:24;;;;;;;8.65;2.65;;;;;;;;;;4978657;28;20046;-78
2022/07/15 12:57:50;;;;;;;5.68;2.85;;;;;;;;;;4977684;28;20441;-79
2022/07/15 13:00:18;;;;;;;2.42;2.22;;;;;;;;;;4978296;28;20073;-79
2022/07/15 13:02:57;;;;;;;3.20;2.50;;;;;;;;;;4978137;28;20045;-78
2022/07/15 13:05:23;;;;;;;4.38;2.53;;;;;;;;;;4978516;28;20035;-78
2022/07/15 13:07:49;;;;;;;2.88;2.60;;;;;;;;;;4979041;28;20101;-80
2022/07/15 13:10:16;;;;;;;3.90;2.70;;;;;;;;;;4978390;28;20478;-79
2022/07/15 13:12:42;;;;;;;4.30;2.85;;;;;;;;;;4977109;28;20067;-79
2022/07/15 13:15:08;;;;;;;4.57;3.00;;;;;;;;;;4978382;28;20509;-79
2022/07/15 13:17:37;;;;;;;4.13;2.75;;;;;;;;;;4978190;28;20073;-79
2022/07/15 13:20:05;;;;;;;4.80;3.38;;;;;;;;;;4978620;28;20061;-79
2022/07/15 13:22:31;;;;;;;3.33;3.03;;;;;;;;;;4978083;28;20508;-79
2022/07/15 13:24:58;;;;;;;3.60;3.03;;;;;;;;;;4978045;28;20047;-79
2022/07/15 13:27:24;;;;;;;4.32;3.30;;;;;;;;;;4977856;28;20124;-80
2022/07/15 13:29:51;;;;;;;3.17;2.95;;;;;;;;;;4977977;28;20043;-80
2022/07/15 13:32:17;;;;;;;3.47;3.17;;;;;;;;;;4977776;28;20053;-79
2022/07/15 13:34:43;;;;;;;5.07;3.03;;;;;;;;;;4977658;28;20047;-79
2022/07/15 13:37:09;;;;;;;5.30;2.72;;;;;;;;;;4976938;28;20450;-79
2022/07/15 13:39:35;;;;;;;5.15;3.15;;;;;;;;;;4978090;28;20054;-79
2022/07/15 13:42:02;;;;;;;3.03;2.80;;;;;;;;;;4968684;28;20405;-79
2022/07/15 13:44:28;;;;;;;3.20;2.75;;;;;;;;;;4957229;29;20383;-79
2022/07/15 13:46:54;;;;;;;4.40;2.90;;;;;;;;;;4957862;28;20086;-79
2022/07/15 13:51:22;;;;;;;3.63;2.65;;;;;;;;;;4957165;29;20418;-79
2022/07/15 13:52:06;;;;;;;5.38;2.40;;;;;;;;;;4957757;28;20054;-80
2022/07/15 13:54:32;;;;;;;3.20;2.88;;;;;;;;;;4958083;29;20050;-79
2022/07/15 13:56:58;;;;;;;2.60;2.40;;;;;;;;;;4956792;29;20050;-79
2022/07/15 13:59:25;;;;;;;3.17;2.20;;;;;;;;;;4958227;29;20141;-80
2022/07/15 14:01:51;;;;;;;4.97;2.40;;;;;;;;;;4956980;29;20106;-79
2022/07/15 14:04:17;;;;;;;3.85;2.28;;;;;;;;;;4957586;28;20047;-79
2022/07/15 14:06:43;;;;;;;3.00;2.30;;;;;;;;;;4957893;28;20090;-78
2022/07/15 14:09:09;;;;;;;4.25;2.35;;;;;;;;;;4957241;29;20122;-80
2022/07/15 14:11:35;;;;;;;2.35;2.15;;;;;;;;;;4956944;29;20045;-80
2022/07/15 14:14:02;;;;;;;2.58;2.38;;;;;;;;;;4957121;29;20130;-79
2022/07/15 14:16:28;;;;;;;2.65;2.38;;;;;;;;;;4957612;29;20043;-80
2022/07/15 14:18:54;;;;;;;2.88;2.40;;;;;;;;;;4956511;28;20525;-79
2022/07/15 14:21:21;;;;;;;2.67;2.30;;;;;;;;;;4957364;28;20150;-79
2022/07/15 14:23:48;;;;;;;2.38;2.17;;;;;;;;;;4957241;29;20067;-78
2022/07/15 14:26:14;;;;;;;3.05;2.20;;;;;;;;;;4956032;29;20091;-79
2022/07/15 14:28:42;;;;;;;3.33;2.42;;;;;;;;;;4957600;28;20106;-78
2022/07/15 14:31:09;;;;;;;3.45;2.33;;;;;;;;;;4956484;28;20131;-80
2022/07/15 14:33:35;;;;;;;2.92;2.70;;;;;;;;;;4956936;29;20051;-79
2022/07/15 14:36:02;;;;;;;4.88;2.55;;;;;;;;;;4956595;29;20039;-79
2022/07/15 14:38:28;;;;;;;2.50;2.30;;;;;;;;;;4956965;29;20126;-79
2022/07/15 14:40:54;;;;;;;2.92;2.67;;;;;;;;;;4955628;29;20105;-79
2022/07/15 14:43:20;;;;;;;2.53;2.03;;;;;;;;;;4955486;29;20513;-79
2022/07/15 14:45:47;;;;;;;3.83;2.70;;;;;;;;;;4956523;29;20038;-80
2022/07/15 14:48:13;;;;;;;6.22;2.70;;;;;;;;;;4955724;28;20065;-79
2022/07/15 14:50:39;;;;;;;3.03;2.72;;;;;;;;;;4956709;29;20497;-79
2022/07/15 14:53:05;;;;;;;3.20;2.50;;;;;;;;;;4956519;29;20054;-79
2022/07/15 14:55:32;;;;;;;2.45;1.90;;;;;;;;;;4957647;28;20045;-80
2022/07/15 14:57:58;;;;;;;3.60;2.40;;;;;;;;;;4963813;28;20047;-80
2022/07/15 15:00:24;;;;;;;4.38;2.38;;;;;;;;;;4955679;28;20045;-79
2022/07/15 15:02:50;;;;;;;2.53;2.33;;;;;;;;;;4955464;28;20130;-79
2022/07/15 15:05:16;;;;;;;2.10;2.00;;;;;;;;;;4955760;28;20039;-80